Watts, Oklahoma
Current Conditions -  °F | °C
As of 8:35 AM on Sunday 25 Jan 2015 (Local Time) from KSLG Reporting Station
Overcast Overcast  
Wind Chill: 40°   Ceiling: 7000
Heat Index: 46°   Visibility: 10mi
Dew Point: 34°   Wind: 15mph
Humidity: 62%   Direction: 280°W
Pressure: 29.8"   Gusts: 21mph
Location:  36.11°N, 94.57°W
Report Text: KSLG 251435Z AUTO 28013G18KT 10SM SCT041 OVC070 08/01 A2980 RMK AO1
Loading
Personal Weather Stations






























Interactive Weather Map New forecast layout! Learn more

10-Day Weather Forecast

Advertisements
Track Severe Weather on mobile